createdAt,value
2022-10-24T00:01:24.125Z,15.07
2022-10-24T00:04:27.531Z,15.06
2022-10-24T00:07:32.161Z,15.13
2022-10-24T00:10:36.454Z,14.86
2022-10-24T00:13:40.328Z,14.98
2022-10-24T00:16:43.483Z,15.00
2022-10-24T00:19:46.661Z,14.86
2022-10-24T00:22:51.215Z,14.86
2022-10-24T00:25:54.408Z,14.77
2022-10-24T00:28:57.482Z,14.82
2022-10-24T00:32:00.708Z,14.56
2022-10-24T00:35:04.704Z,14.75
2022-10-24T00:38:09.247Z,14.41
2022-10-24T00:41:16.100Z,14.29
2022-10-24T00:44:24.957Z,14.29
2022-10-24T00:47:28.577Z,14.12
2022-10-24T00:50:31.776Z,13.90
2022-10-24T00:53:43.871Z,13.79
2022-10-24T00:56:57.658Z,13.92
2022-10-24T01:00:05.092Z,13.92
2022-10-24T01:03:08.405Z,13.68
2022-10-24T01:06:30.394Z,13.42
2022-10-24T01:09:51.035Z,13.78
2022-10-24T01:13:03.580Z,13.78
2022-10-24T01:16:12.843Z,13.65
2022-10-24T01:19:36.256Z,13.88
2022-10-24T01:22:53.190Z,13.95
2022-10-24T01:26:15.057Z,13.84
2022-10-24T01:29:24.196Z,14.02
2022-10-24T01:32:40.192Z,13.77
2022-10-24T01:35:51.222Z,13.79
2022-10-24T01:38:58.556Z,13.82
2022-10-24T01:42:04.798Z,13.87
2022-10-24T01:45:11.558Z,13.87
2022-10-24T01:48:21.043Z,13.78
2022-10-24T01:51:28.194Z,13.95
2022-10-24T01:54:32.920Z,13.72
2022-10-24T01:57:36.738Z,13.68
2022-10-24T02:00:39.957Z,13.67
2022-10-24T02:03:48.979Z,13.63
2022-10-24T02:06:53.442Z,13.68
2022-10-24T02:10:01.551Z,13.67
2022-10-24T02:13:10.030Z,13.50
2022-10-24T02:16:16.904Z,13.72
2022-10-24T02:19:22.342Z,13.59
2022-10-24T02:22:29.819Z,13.60
2022-10-24T02:25:37.411Z,13.67
2022-10-24T02:28:45.178Z,13.59
2022-10-24T02:31:54.314Z,13.82
2022-10-24T02:35:00.296Z,13.80
2022-10-24T02:38:08.638Z,13.75
2022-10-24T02:41:16.175Z,13.79
2022-10-24T02:44:20.576Z,13.67
2022-10-24T02:47:27.017Z,13.71
2022-10-24T02:50:33.170Z,13.66
2022-10-24T02:53:37.572Z,13.44
2022-10-24T02:56:44.902Z,13.58
2022-10-24T02:59:47.994Z,13.38
2022-10-24T03:02:51.385Z,13.27
2022-10-24T03:05:55.978Z,13.32
2022-10-24T03:08:59.164Z,13.38
2022-10-24T03:12:02.518Z,13.07
2022-10-24T03:15:06.970Z,13.13
2022-10-24T03:18:10.038Z,13.31
2022-10-24T03:21:14.568Z,13.00
2022-10-24T03:24:26.781Z,12.79
2022-10-24T03:27:40.477Z,13.06
2022-10-24T03:34:23.651Z,12.91
2022-10-24T03:37:27.109Z,12.39
2022-10-24T03:40:30.439Z,12.39
2022-10-24T03:43:33.557Z,12.34
2022-10-24T03:46:36.861Z,12.59
2022-10-24T03:49:41.368Z,12.65
2022-10-24T03:52:44.677Z,12.57
2022-10-24T03:55:48.143Z,12.56
2022-10-24T03:58:51.431Z,12.43
2022-10-24T04:01:54.522Z,12.62
2022-10-24T04:04:59.151Z,12.76
2022-10-24T04:08:02.299Z,12.83
2022-10-24T04:11:05.554Z,12.98
2022-10-24T04:14:09.588Z,13.06
2022-10-24T04:17:12.824Z,13.07
2022-10-24T04:20:19.888Z,13.01
2022-10-24T04:23:23.029Z,12.90
2022-10-24T04:26:26.325Z,12.77
2022-10-24T04:29:29.481Z,12.90
2022-10-24T04:32:32.916Z,12.98
2022-10-24T04:35:37.494Z,12.88
2022-10-24T04:38:41.488Z,12.73
2022-10-24T04:41:44.752Z,13.06
2022-10-24T04:44:47.997Z,13.03
2022-10-24T04:47:51.070Z,12.88
2022-10-24T04:50:56.055Z,12.89
2022-10-24T04:53:59.191Z,12.86
2022-10-24T04:57:02.274Z,12.65
2022-10-24T05:00:06.676Z,12.43
2022-10-24T05:03:09.943Z,12.68
2022-10-24T05:06:14.427Z,12.51
2022-10-24T05:09:17.924Z,12.52
2022-10-24T05:12:21.081Z,12.31
2022-10-24T05:15:24.251Z,12.45
2022-10-24T05:18:27.638Z,12.57
2022-10-24T05:21:33.090Z,12.65
2022-10-24T05:24:36.283Z,12.73
2022-10-24T05:27:39.939Z,12.48
2022-10-24T05:30:44.260Z,12.47
2022-10-24T05:33:47.430Z,12.84
2022-10-24T05:36:52.012Z,12.91
2022-10-24T05:39:55.267Z,12.67
2022-10-24T05:42:58.417Z,12.74
2022-10-24T05:46:01.778Z,12.71
2022-10-24T05:49:05.117Z,12.72
2022-10-24T05:52:09.709Z,12.77
2022-10-24T05:55:14.518Z,12.85
2022-10-24T05:58:22.208Z,12.83
2022-10-24T06:01:25.406Z,12.91
2022-10-24T06:04:28.647Z,12.85
2022-10-24T06:07:33.173Z,12.87
2022-10-24T06:10:36.991Z,12.91
2022-10-24T06:13:40.738Z,12.89
2022-10-24T06:16:43.971Z,13.01
2022-10-24T06:22:53.701Z,13.10
2022-10-24T06:25:57.259Z,12.98
2022-10-24T06:29:00.423Z,13.16
2022-10-24T06:32:03.779Z,13.15
2022-10-24T06:35:07.685Z,13.33
2022-10-24T06:38:12.131Z,13.35
2022-10-24T06:41:17.103Z,13.23
2022-10-24T06:44:20.504Z,13.54
2022-10-24T06:47:23.747Z,12.98
2022-10-24T06:50:26.888Z,13.65
2022-10-24T06:53:32.411Z,13.74
2022-10-24T06:56:36.007Z,14.04
2022-10-24T06:59:39.159Z,13.92
2022-10-24T07:02:42.564Z,14.08
2022-10-24T07:05:45.838Z,14.26
2022-10-24T07:08:51.520Z,14.23
2022-10-24T07:11:54.866Z,14.41
2022-10-24T07:14:57.986Z,14.38
2022-10-24T07:18:01.212Z,14.41
2022-10-24T07:21:06.318Z,14.48
2022-10-24T07:24:12.568Z,14.45
2022-10-24T07:27:15.872Z,14.70
2022-10-24T07:30:19.454Z,14.49
2022-10-24T07:33:22.756Z,13.63
2022-10-24T07:36:45.822Z,13.15
2022-10-24T07:39:50.344Z,12.87
2022-10-24T07:42:53.792Z,12.89
2022-10-24T07:45:56.979Z,12.91
2022-10-24T07:49:00.521Z,12.77
2022-10-24T07:52:03.817Z,12.88
2022-10-24T07:55:11.674Z,14.92
2022-10-24T07:58:15.179Z,14.45
2022-10-24T08:01:22.571Z,13.76
2022-10-24T08:04:25.960Z,13.82
2022-10-24T08:07:29.959Z,13.64
2022-10-24T08:10:34.695Z,13.59
2022-10-24T08:13:38.015Z,13.47
2022-10-24T08:16:42.680Z,-143.47
2022-10-24T08:20:00.208Z,13.39
2022-10-24T08:23:03.521Z,13.56
2022-10-24T08:26:08.286Z,-143.47
2022-10-24T08:29:12.091Z,-143.47
2022-10-24T08:32:15.462Z,-143.47
2022-10-24T08:35:22.178Z,-143.47
2022-10-24T08:38:25.500Z,-143.47
2022-10-24T08:41:32.615Z,-143.47
2022-10-24T08:44:40.175Z,-143.47
2022-10-24T08:47:49.840Z,-143.47
2022-10-24T08:51:03.051Z,-143.47
2022-10-24T08:54:11.287Z,-143.47
2022-10-24T08:57:24.883Z,-143.47
2022-10-24T09:00:32.361Z,-143.47
2022-10-24T09:03:57.317Z,-143.47
2022-10-24T09:07:03.645Z,-143.47
2022-10-24T09:10:14.635Z,-143.47
2022-10-24T09:13:18.755Z,-143.47
2022-10-24T09:16:24.959Z,-143.47
2022-10-24T09:19:30.847Z,-143.47
2022-10-24T09:22:39.437Z,-143.47
2022-10-24T09:25:51.901Z,-143.47
2022-10-24T09:28:57.056Z,-143.47
2022-10-24T09:34:24.490Z,13.76
2022-10-24T09:37:42.463Z,13.64
2022-10-24T09:40:51.764Z,13.93
2022-10-24T09:43:56.988Z,13.98
2022-10-24T09:47:01.645Z,13.99
2022-10-24T09:50:07.276Z,14.09
2022-10-24T09:53:23.392Z,14.10
2022-10-24T09:56:35.371Z,14.17
2022-10-24T09:59:44.955Z,14.18
2022-10-24T10:02:59.522Z,14.20
2022-10-24T10:06:15.549Z,14.19
2022-10-24T10:09:28.075Z,14.17
2022-10-24T10:12:34.794Z,14.19
2022-10-24T10:15:40.411Z,14.23
2022-10-24T10:18:46.866Z,14.19
2022-10-24T10:21:57.423Z,14.24
2022-10-24T10:25:02.009Z,14.19
2022-10-24T10:28:11.388Z,14.23
2022-10-24T10:31:17.198Z,14.21
2022-10-24T10:34:26.629Z,14.18
2022-10-24T10:37:33.284Z,14.17
2022-10-24T10:40:45.203Z,14.30
2022-10-24T10:43:58.500Z,14.29
2022-10-24T10:47:11.520Z,14.32
2022-10-24T10:50:27.739Z,14.36
2022-10-24T10:53:39.134Z,14.41
2022-10-24T10:56:49.573Z,14.41
2022-10-24T10:59:59.711Z,14.44
2022-10-24T11:03:14.696Z,14.44
2022-10-24T11:06:31.654Z,14.50
2022-10-24T11:09:42.153Z,14.50
2022-10-24T11:12:47.276Z,14.54
2022-10-24T11:15:56.919Z,14.56
2022-10-24T11:19:03.498Z,14.57
2022-10-24T11:22:16.336Z,14.55
2022-10-24T11:25:26.366Z,14.62
2022-10-24T11:28:33.789Z,14.55
2022-10-24T11:31:41.298Z,14.62
2022-10-24T11:34:50.603Z,14.28
2022-10-24T11:37:58.336Z,14.68
2022-10-24T11:41:19.368Z,14.67
2022-10-24T11:44:42.545Z,14.59
2022-10-24T11:48:00.787Z,14.72
2022-10-24T11:51:10.712Z,14.69
2022-10-24T11:54:20.135Z,14.72
2022-10-24T11:57:27.908Z,14.82
2022-10-24T12:00:38.833Z,14.74
2022-10-24T12:04:07.335Z,14.85
2022-10-24T12:07:41.514Z,14.91
2022-10-24T12:11:02.727Z,15.00
2022-10-24T12:14:35.715Z,15.07
2022-10-24T12:17:57.083Z,15.11
2022-10-24T12:21:04.426Z,14.99
2022-10-24T12:24:22.119Z,14.97
2022-10-24T12:27:38.228Z,15.01
2022-10-24T12:30:42.832Z,15.04
2022-10-24T12:33:46.938Z,15.08
2022-10-24T12:37:08.186Z,15.10
2022-10-24T12:40:52.982Z,15.05
2022-10-24T12:44:27.464Z,14.91
2022-10-24T12:47:41.539Z,14.94
2022-10-24T12:51:07.344Z,14.95
2022-10-24T12:54:17.399Z,14.91
2022-10-24T12:57:27.406Z,14.99
2022-10-24T13:00:33.669Z,15.03
2022-10-24T13:03:57.586Z,15.03
2022-10-24T13:07:21.352Z,15.04
2022-10-24T13:10:38.860Z,14.91
2022-10-24T13:13:59.654Z,14.94
2022-10-24T13:17:11.877Z,14.94
2022-10-24T13:20:21.376Z,14.85
2022-10-24T13:23:27.497Z,14.78
2022-10-24T13:26:40.648Z,14.73
2022-10-24T13:30:34.781Z,14.70
2022-10-24T13:33:45.423Z,14.66
2022-10-24T13:36:54.657Z,14.78
2022-10-24T13:40:04.099Z,14.83
2022-10-24T13:43:16.600Z,14.88
2022-10-24T13:46:26.429Z,14.88
2022-10-24T13:49:33.799Z,14.81
2022-10-24T13:52:49.360Z,14.86
2022-10-24T13:55:52.997Z,14.86
2022-10-24T13:58:56.344Z,14.81
2022-10-24T14:02:02.816Z,14.76
2022-10-24T14:05:07.000Z,14.87
2022-10-24T14:08:29.027Z,14.89
2022-10-24T14:11:33.411Z,14.99
2022-10-24T14:14:39.971Z,15.05
2022-10-24T14:17:59.173Z,15.15
2022-10-24T14:21:19.115Z,15.19
2022-10-24T14:24:33.685Z,15.12
2022-10-24T14:27:47.441Z,14.99
2022-10-24T14:31:03.099Z,15.28
2022-10-24T14:34:22.923Z,15.27
2022-10-24T14:37:38.210Z,15.19
2022-10-24T14:41:06.404Z,15.07
2022-10-24T14:44:23.723Z,15.02
2022-10-24T14:48:24.583Z,15.16
2022-10-24T14:51:39.098Z,15.08
2022-10-24T14:54:55.791Z,15.03
2022-10-24T14:58:04.454Z,15.02
2022-10-24T15:03:23.208Z,14.81
2022-10-24T15:06:46.219Z,14.80
2022-10-24T15:09:54.878Z,14.76
2022-10-24T15:13:03.132Z,14.69
2022-10-24T15:16:06.661Z,14.67
2022-10-24T15:19:19.299Z,14.59
2022-10-24T15:22:28.595Z,14.51
2022-10-24T15:25:36.692Z,14.49
2022-10-24T15:28:47.995Z,14.45
2022-10-24T15:34:27.021Z,14.22
2022-10-24T15:37:30.520Z,14.22
2022-10-24T15:40:35.837Z,14.11
2022-10-24T15:43:39.034Z,14.11
2022-10-24T15:46:42.210Z,14.11
2022-10-24T15:49:46.699Z,14.15
2022-10-24T15:52:55.387Z,14.10
2022-10-24T15:55:58.530Z,14.16
2022-10-24T15:59:01.611Z,14.09
2022-10-24T16:02:05.247Z,14.09
2022-10-24T16:05:15.973Z,14.06
2022-10-24T16:08:19.860Z,14.08
2022-10-24T16:11:23.629Z,13.91
2022-10-24T16:14:26.914Z,13.99
2022-10-24T16:17:30.151Z,13.95
2022-10-24T16:20:35.187Z,13.90
2022-10-24T16:23:38.360Z,13.88
2022-10-24T16:26:42.193Z,13.80
2022-10-24T16:29:45.317Z,13.79
2022-10-24T16:32:48.825Z,13.84
2022-10-24T16:35:53.380Z,13.60
2022-10-24T16:38:56.854Z,13.65
2022-10-24T16:42:01.876Z,13.62
2022-10-24T16:45:05.727Z,13.53
2022-10-24T16:48:09.449Z,13.41
2022-10-24T16:51:16.373Z,13.37
2022-10-24T16:54:21.754Z,13.29
2022-10-24T16:57:26.007Z,13.39
2022-10-24T17:00:30.331Z,13.43
2022-10-24T17:03:33.749Z,13.62
2022-10-24T17:06:38.217Z,13.29
2022-10-24T17:09:42.379Z,13.32
2022-10-24T17:12:47.649Z,13.35
2022-10-24T17:15:51.052Z,13.26
2022-10-24T17:19:05.572Z,13.20
2022-10-24T17:22:19.568Z,13.04
2022-10-24T17:25:25.679Z,13.09
2022-10-24T17:28:33.071Z,13.02
2022-10-24T17:31:36.939Z,13.06
2022-10-24T17:34:40.840Z,13.06
2022-10-24T17:37:54.817Z,13.00
2022-10-24T17:41:03.798Z,13.01
2022-10-24T17:44:08.109Z,13.04
2022-10-24T17:47:11.663Z,13.08
2022-10-24T17:50:15.624Z,13.06
2022-10-24T17:53:20.800Z,12.88
2022-10-24T17:56:25.743Z,12.93
2022-10-24T17:59:29.062Z,12.54
2022-10-24T18:02:32.149Z,12.72
2022-10-24T18:05:38.059Z,12.51
2022-10-24T18:08:43.912Z,12.73
2022-10-24T18:11:47.114Z,12.62
2022-10-24T18:14:50.272Z,12.47
2022-10-24T18:17:53.519Z,12.54
2022-10-24T18:21:07.060Z,12.42
2022-10-24T18:24:11.563Z,12.26
2022-10-24T18:27:14.733Z,12.35
2022-10-24T18:30:19.184Z,12.35
2022-10-24T18:33:22.569Z,12.40
2022-10-24T18:36:28.295Z,12.48
2022-10-24T18:39:32.943Z,12.08
2022-10-24T18:42:44.797Z,12.32
2022-10-24T18:45:51.728Z,12.29
2022-10-24T18:48:55.301Z,12.37
2022-10-24T18:52:08.162Z,12.44
2022-10-24T18:55:19.107Z,12.20
2022-10-24T18:58:22.395Z,12.50
2022-10-24T19:01:34.394Z,12.48
2022-10-24T19:04:42.989Z,12.44
2022-10-24T19:07:48.347Z,12.43
2022-10-24T19:10:55.957Z,12.64
2022-10-24T19:14:00.512Z,12.69
2022-10-24T19:17:04.106Z,12.55
2022-10-24T19:20:08.911Z,12.40
2022-10-24T19:23:12.963Z,12.83
2022-10-24T19:26:17.802Z,12.28
2022-10-24T19:29:20.915Z,12.32
2022-10-24T19:32:24.023Z,12.25
2022-10-24T19:35:27.195Z,12.21
2022-10-24T19:38:30.395Z,12.54
2022-10-24T19:41:35.526Z,12.27
2022-10-24T19:44:39.374Z,12.52
2022-10-24T19:47:42.559Z,12.10
2022-10-24T19:50:46.206Z,12.13
2022-10-24T19:53:50.591Z,12.40
2022-10-24T19:56:55.954Z,12.36
2022-10-24T19:59:59.099Z,12.50
2022-10-24T20:03:02.240Z,12.36
2022-10-24T20:06:05.736Z,12.31
2022-10-24T20:09:09.085Z,12.27
2022-10-24T20:12:13.936Z,12.38
2022-10-24T20:15:19.026Z,12.40
2022-10-24T20:18:22.428Z,12.61
2022-10-24T20:21:25.593Z,12.70
2022-10-24T20:24:30.492Z,12.62
2022-10-24T20:27:35.169Z,12.47
2022-10-24T20:30:43.550Z,12.59
2022-10-24T20:33:46.675Z,12.43
2022-10-24T20:36:49.770Z,12.36
2022-10-24T20:39:52.826Z,12.45
2022-10-24T20:42:57.361Z,12.45
2022-10-24T20:46:00.491Z,12.35
2022-10-24T20:49:03.992Z,12.32
2022-10-24T20:52:07.228Z,12.31
2022-10-24T20:55:19.747Z,12.43
2022-10-24T20:58:37.956Z,11.95
2022-10-24T21:01:41.581Z,12.32
2022-10-24T21:04:44.813Z,12.27
2022-10-24T21:07:51.094Z,12.30
2022-10-24T21:10:54.233Z,12.09
2022-10-24T21:14:00.923Z,11.91
2022-10-24T21:17:04.072Z,12.06
2022-10-24T21:20:08.114Z,12.19
2022-10-24T21:23:11.281Z,12.03
2022-10-24T21:26:15.565Z,12.00
2022-10-24T21:29:32.705Z,12.06
2022-10-24T21:34:26.797Z,11.85
2022-10-24T21:37:32.654Z,11.97
2022-10-24T21:40:35.812Z,11.95
2022-10-24T21:43:40.419Z,11.74
2022-10-24T21:46:43.854Z,11.78
2022-10-24T21:49:48.476Z,11.86
2022-10-24T21:52:52.228Z,11.79
2022-10-24T21:56:03.438Z,11.80
2022-10-24T21:59:08.864Z,11.89
2022-10-24T22:02:12.173Z,11.82
2022-10-24T22:05:16.935Z,11.89
2022-10-24T22:08:20.106Z,11.89
2022-10-24T22:11:25.403Z,11.66
2022-10-24T22:14:28.571Z,11.98
2022-10-24T22:17:31.905Z,11.89
2022-10-24T22:20:36.378Z,11.89
2022-10-24T22:23:39.622Z,11.80
2022-10-24T22:26:43.640Z,11.70
2022-10-24T22:29:46.874Z,11.89
2022-10-24T22:32:51.482Z,11.79
2022-10-24T22:35:59.764Z,11.85
2022-10-24T22:39:03.945Z,11.85
2022-10-24T22:42:07.830Z,11.83
2022-10-24T22:45:13.245Z,11.94
2022-10-24T22:48:20.154Z,11.83
2022-10-24T22:51:25.351Z,11.90
2022-10-24T22:54:34.630Z,11.87
2022-10-24T22:57:38.180Z,11.82
2022-10-24T23:00:41.813Z,11.80
2022-10-24T23:04:00.316Z,11.67
2022-10-24T23:07:10.381Z,11.77
2022-10-24T23:10:19.732Z,11.62
2022-10-24T23:13:23.342Z,11.62
2022-10-24T23:16:33.345Z,11.64
2022-10-24T23:19:42.049Z,11.56
2022-10-24T23:22:54.374Z,11.43
2022-10-24T23:26:16.521Z,11.32
2022-10-24T23:29:28.546Z,11.33
2022-10-24T23:32:34.488Z,11.32
2022-10-24T23:35:39.452Z,11.33
2022-10-24T23:38:44.548Z,11.24
2022-10-24T23:41:48.526Z,11.19
2022-10-24T23:44:52.509Z,11.18
2022-10-24T23:48:19.275Z,11.01
2022-10-24T23:51:30.978Z,11.09
2022-10-24T23:54:36.102Z,11.05
2022-10-24T23:57:39.728Z,11.03
